Time,TemperatureF,DewpointF,PressureIn,WindDirection,WindDirectionDegrees,WindSpeedMPH,WindSpeedGustMPH,Humidity,HourlyPrecipIn,Conditions,Clouds,dailyrainin,SoftwareType,DateUTC
2013-04-15 00:04:00,62.4,50.5,29.67,SE,125,6.3,6.3,65,0.28,,,0.28,WeatherDisplay:10.36,2013-04-15 05:04:00,
2013-04-15 00:09:00,62.4,50.5,29.67,NE,53,0.0,0.0,65,0.16,,,0.28,WeatherDisplay:10.36,2013-04-15 05:09:00,
2013-04-15 00:14:00,62.2,50.7,29.67,NE,43,2.7,0.0,66,0.04,,,0.28,WeatherDisplay:10.36,2013-04-15 05:14:00,
2013-04-15 00:19:00,62.2,50.7,29.70,ESE,117,5.4,5.4,66,0.04,,,0.28,WeatherDisplay:10.36,2013-04-15 05:19:00,
2013-04-15 00:24:00,62.1,51.0,29.70,NE,54,3.6,0.0,67,0.04,,,0.28,WeatherDisplay:10.36,2013-04-15 05:24:00,
2013-04-15 00:29:00,62.1,51.0,29.70,NE,48,4.6,0.0,67,0.00,,,0.28,WeatherDisplay:10.36,2013-04-15 05:29:00,
2013-04-15 00:34:00,61.9,50.8,29.67,NE,43,5.8,5.8,67,0.00,,,0.28,WeatherDisplay:10.36,2013-04-15 05:34:00,
2013-04-15 00:39:00,61.9,51.2,29.67,NE,48,0.0,0.0,68,0.00,,,0.28,WeatherDisplay:10.36,2013-04-15 05:39:00,
2013-04-15 00:44:00,61.7,51.0,29.67,East,100,3.1,0.0,68,0.00,,,0.28,WeatherDisplay:10.36,2013-04-15 05:44:00,
2013-04-15 00:49:00,61.7,51.4,29.67,NE,44,4.0,4.0,69,0.00,,,0.28,WeatherDisplay:10.36,2013-04-15 05:49:00,
2013-04-15 00:54:00,61.7,51.4,29.67,NE,50,4.6,4.6,69,0.00,,,0.28,WeatherDisplay:10.36,2013-04-15 05:54:00,
2013-04-15 00:59:00,61.7,51.8,29.67,East,89,0.0,0.0,70,0.00,,,0.28,WeatherDisplay:10.36,2013-04-15 05:59:00,
2013-04-15 01:04:00,61.5,51.6,29.70,East,86,0.0,0.0,70,0.00,,,0.28,WeatherDisplay:10.36,2013-04-15 06:04:00,
2013-04-15 01:09:00,61.7,51.8,29.70,ESE,116,0.0,0.0,70,0.00,,,0.28,WeatherDisplay:10.36,2013-04-15 06:09:00,
2013-04-15 01:14:00,61.5,52.0,29.70,NE,44,3.5,0.0,71,0.00,,,0.28,WeatherDisplay:10.36,2013-04-15 06:14:00,
2013-04-15 01:19:00,61.5,52.0,29.70,East,99,0.0,0.0,71,0.00,,,0.28,WeatherDisplay:10.36,2013-04-15 06:19:00,
2013-04-15 01:24:00,61.3,51.9,29.70,East,81,4.6,4.6,71,0.00,,,0.28,WeatherDisplay:10.36,2013-04-15 06:24:00,
2013-04-15 01:29:00,61.3,51.9,29.70,East,83,0.0,0.0,71,0.00,,,0.28,WeatherDisplay:10.36,2013-04-15 06:29:00,
2013-04-15 01:34:00,61.3,51.9,29.70,NE,42,3.5,3.5,71,0.00,,,0.28,WeatherDisplay:10.36,2013-04-15 06:34:00,
2013-04-15 01:39:00,61.3,52.2,29.70,NE,48,0.0,0.0,72,0.00,,,0.28,WeatherDisplay:10.36,2013-04-15 06:39:00,
2013-04-15 01:44:00,61.3,52.2,29.70,NE,46,0.0,0.0,72,0.00,,,0.28,WeatherDisplay:10.36,2013-04-15 06:44:00,
2013-04-15 01:49:00,61.3,52.2,29.70,NE,49,0.0,0.0,72,0.00,,,0.28,WeatherDisplay:10.36,2013-04-15 06:49:00,
2013-04-15 01:54:00,61.2,52.1,29.70,NE,49,0.0,0.0,72,0.00,,,0.28,WeatherDisplay:10.36,2013-04-15 06:54:00,
2013-04-15 01:59:00,61.2,52.1,29.70,NE,54,0.0,0.0,72,0.00,,,0.28,WeatherDisplay:10.36,2013-04-15 06:59:00,
2013-04-15 02:04:00,61.2,52.4,29.70,NE,53,0.0,0.0,73,0.00,,,0.28,WeatherDisplay:10.36,2013-04-15 07:04:00,
2013-04-15 02:41:00,60.6,52.3,29.70,NE,53,0.0,0.0,74,0.00,,,0.28,WeatherDisplay:10.36,2013-04-15 07:41:00,
2013-04-15 02:42:00,60.6,52.3,29.70,NE,50,0.0,0.0,74,0.00,,,0.28,WeatherDisplay:10.36,2013-04-15 07:42:00,
2013-04-15 02:47:00,60.6,52.6,29.70,NE,51,0.0,0.0,75,0.00,,,0.28,WeatherDisplay:10.36,2013-04-15 07:47:00,
2013-04-15 02:48:00,60.6,52.6,29.70,NE,44,0.0,0.0,75,0.00,,,0.28,WeatherDisplay:10.36,2013-04-15 07:48:00,
2013-04-15 02:49:00,60.6,52.6,29.70,NE,54,0.0,0.0,75,0.00,,,0.28,WeatherDisplay:10.36,2013-04-15 07:49:00,
2013-04-15 02:50:00,60.6,52.6,29.70,NE,54,0.0,0.0,75,0.00,,,0.28,WeatherDisplay:10.36,2013-04-15 07:50:00,
2013-04-15 02:53:00,60.6,52.6,29.70,NE,52,0.0,0.0,75,0.00,,,0.28,WeatherDisplay:10.36,2013-04-15 07:53:00,
2013-04-15 02:58:00,60.6,52.6,29.70,NE,53,0.0,0.0,75,0.00,,,0.28,WeatherDisplay:10.36,2013-04-15 07:58:00,
2013-04-15 03:03:00,60.4,52.5,29.70,NE,47,0.0,0.0,75,0.00,,,0.28,WeatherDisplay:10.36,2013-04-15 08:03:00,
2013-04-15 03:08:00,60.4,52.8,29.70,NE,53,0.0,0.0,76,0.00,,,0.28,WeatherDisplay:10.36,2013-04-15 08:08:00,
2013-04-15 03:14:00,60.4,52.8,29.70,NE,52,0.0,0.0,76,0.00,,,0.28,WeatherDisplay:10.36,2013-04-15 08:14:00,
2013-04-15 03:19:00,60.4,52.8,29.70,NE,52,0.0,0.0,76,0.00,,,0.28,WeatherDisplay:10.36,2013-04-15 08:19:00,
2013-04-15 03:24:00,60.3,52.7,29.70,NE,50,0.0,0.0,76,0.00,,,0.28,WeatherDisplay:10.36,2013-04-15 08:24:00,
2013-04-15 03:29:00,60.3,53.0,29.70,NE,48,0.0,0.0,77,0.00,,,0.28,WeatherDisplay:10.36,2013-04-15 08:29:00,
2013-04-15 03:34:00,60.3,53.0,29.70,NE,49,0.0,0.0,77,0.00,,,0.28,WeatherDisplay:10.36,2013-04-15 08:34:00,
2013-04-15 03:40:00,60.3,53.0,29.70,NE,53,0.0,0.0,77,0.00,,,0.28,WeatherDisplay:10.36,2013-04-15 08:40:00,
2013-04-15 03:41:00,60.3,53.0,29.70,NE,45,0.0,0.0,77,0.00,,,0.28,WeatherDisplay:10.36,2013-04-15 08:41:00,
2013-04-15 03:42:00,60.3,53.0,29.70,NE,45,0.0,0.0,77,0.00,,,0.28,WeatherDisplay:10.36,2013-04-15 08:42:00,
2013-04-15 03:47:00,60.1,52.8,29.70,NE,48,0.0,0.0,77,0.00,,,0.28,WeatherDisplay:10.36,2013-04-15 08:47:00,
2013-04-15 03:52:00,60.1,53.2,29.73,NE,47,0.0,0.0,78,0.00,,,0.28,WeatherDisplay:10.36,2013-04-15 08:52:00,
2013-04-15 03:57:00,60.1,53.2,29.73,NE,43,0.0,0.0,78,0.00,,,0.28,WeatherDisplay:10.36,2013-04-15 08:57:00,
2013-04-15 04:02:00,59.9,53.0,29.73,NE,43,0.0,0.0,78,0.00,,,0.28,WeatherDisplay:10.36,2013-04-15 09:02:00,
2013-04-15 04:07:00,59.9,53.0,29.73,NE,49,0.0,0.0,78,0.00,,,0.28,WeatherDisplay:10.36,2013-04-15 09:07:00,
2013-04-15 04:13:00,59.9,53.0,29.73,NE,52,0.0,0.0,78,0.00,,,0.28,WeatherDisplay:10.36,2013-04-15 09:13:00,
2013-04-15 04:18:00,59.7,52.8,29.73,NE,50,0.0,0.0,78,0.00,,,0.28,WeatherDisplay:10.36,2013-04-15 09:18:00,
2013-04-15 04:19:00,59.7,52.8,29.73,NE,50,0.0,0.0,78,0.00,,,0.28,WeatherDisplay:10.36,2013-04-15 09:19:00,
2013-04-15 04:25:00,59.7,52.8,29.73,NE,50,0.0,0.0,78,0.00,,,0.28,WeatherDisplay:10.36,2013-04-15 09:25:00,
2013-04-15 04:30:00,59.5,53.0,29.73,NE,53,4.0,0.0,79,0.00,,,0.28,WeatherDisplay:10.36,2013-04-15 09:30:00,
2013-04-15 04:35:00,59.5,53.0,29.73,NE,53,4.0,0.0,79,0.00,,,0.28,WeatherDisplay:10.36,2013-04-15 09:35:00,
2013-04-15 04:40:00,59.4,52.8,29.73,NE,55,3.5,3.5,79,0.00,,,0.28,WeatherDisplay:10.36,2013-04-15 09:40:00,
2013-04-15 04:45:00,59.4,52.8,29.73,NE,48,3.6,3.6,79,0.00,,,0.28,WeatherDisplay:10.36,2013-04-15 09:45:00,
2013-04-15 04:50:00,59.2,52.7,29.73,NE,52,4.0,4.0,79,0.00,,,0.28,WeatherDisplay:10.36,2013-04-15 09:50:00,
2013-04-15 04:55:00,59.2,52.7,29.73,NE,56,0.0,0.0,79,0.00,,,0.28,WeatherDisplay:10.36,2013-04-15 09:55:00,
2013-04-15 05:00:00,59.2,52.7,29.73,ENE,63,0.0,0.0,79,0.00,,,0.28,WeatherDisplay:10.36,2013-04-15 10:00:00,
2013-04-15 05:05:00,59.0,52.5,29.73,ENE,57,0.0,0.0,79,0.00,,,0.28,WeatherDisplay:10.36,2013-04-15 10:05:00,
2013-04-15 05:10:00,59.0,52.5,29.73,ENE,69,0.0,0.0,79,0.00,,,0.28,WeatherDisplay:10.36,2013-04-15 10:10:00,
2013-04-15 05:15:00,59.4,53.2,29.73,ENE,62,0.0,0.0,80,0.00,,,0.28,WeatherDisplay:10.36,2013-04-15 10:15:00,
2013-04-15 05:20:00,59.5,53.0,29.73,NE,49,0.0,0.0,79,0.00,,,0.28,WeatherDisplay:10.36,2013-04-15 10:20:00,
2013-04-15 05:25:00,59.4,52.8,29.73,ENE,57,0.0,0.0,79,0.00,,,0.28,WeatherDisplay:10.36,2013-04-15 10:25:00,
2013-04-15 05:30:00,59.4,52.8,29.73,NE,47,4.6,4.6,79,0.00,,,0.28,WeatherDisplay:10.36,2013-04-15 10:30:00,
2013-04-15 05:35:00,59.4,53.2,29.73,NE,53,4.6,4.6,80,0.00,,,0.28,WeatherDisplay:10.36,2013-04-15 10:35:00,
2013-04-15 05:40:00,59.4,53.2,29.73,ENE,62,4.0,4.0,80,0.00,,,0.28,WeatherDisplay:10.36,2013-04-15 10:40:00,
2013-04-15 05:45:00,59.4,53.2,29.73,East,85,3.6,3.6,80,0.00,,,0.28,WeatherDisplay:10.36,2013-04-15 10:45:00,
2013-04-15 05:50:00,59.2,53.0,29.76,NE,56,4.0,4.0,80,0.00,,,0.28,WeatherDisplay:10.36,2013-04-15 10:50:00,
2013-04-15 05:55:00,59.4,53.2,29.76,East,79,3.6,3.6,80,0.00,,,0.28,WeatherDisplay:10.36,2013-04-15 10:55:00,
2013-04-15 06:00:00,59.2,53.0,29.76,East,84,3.6,3.6,80,0.00,,,0.28,WeatherDisplay:10.36,2013-04-15 11:00:00,
2013-04-15 06:05:00,59.0,52.5,29.76,NE,46,4.0,4.0,79,0.00,,,0.28,WeatherDisplay:10.36,2013-04-15 11:05:00,
2013-04-15 06:10:00,58.8,52.3,29.76,NE,51,4.5,4.5,79,0.00,,,0.28,WeatherDisplay:10.36,2013-04-15 11:10:00,
2013-04-15 06:15:00,58.6,51.8,29.76,NE,52,4.0,4.0,78,0.00,,,0.28,WeatherDisplay:10.36,2013-04-15 11:15:00,
2013-04-15 06:20:00,58.5,51.6,29.76,ENE,69,4.0,4.0,78,0.00,,,0.28,WeatherDisplay:10.36,2013-04-15 11:20:00,
2013-04-15 06:25:00,58.3,51.1,29.76,ENE,57,4.6,4.6,77,0.00,,,0.28,WeatherDisplay:10.36,2013-04-15 11:25:00,
2013-04-15 06:30:00,58.1,50.9,29.76,NE,49,3.6,3.6,77,0.00,,,0.28,WeatherDisplay:10.36,2013-04-15 11:30:00,
2013-04-15 06:35:00,58.1,50.6,29.79,East,81,3.6,3.6,76,0.00,,,0.28,WeatherDisplay:10.36,2013-04-15 11:35:00,
2013-04-15 06:40:00,57.9,50.4,29.79,ENE,61,3.1,3.1,76,0.00,,,0.28,WeatherDisplay:10.36,2013-04-15 11:40:00,
2013-04-15 06:45:00,57.9,50.0,29.79,SSE,164,4.9,0.0,75,0.00,,,0.28,WeatherDisplay:10.36,2013-04-15 11:45:00,
2013-04-15 06:50:00,57.7,49.9,29.76,ENE,75,3.6,3.6,75,0.00,,,0.28,WeatherDisplay:10.36,2013-04-15 11:50:00,
2013-04-15 06:55:00,57.6,49.3,29.76,NE,45,0.0,0.0,74,0.00,,,0.28,WeatherDisplay:10.36,2013-04-15 11:55:00,
2013-04-15 07:00:00,57.6,49.3,29.76,NE,45,4.0,0.0,74,0.00,,,0.28,WeatherDisplay:10.36,2013-04-15 12:00:00,
2013-04-15 07:05:00,57.6,49.3,29.79,NE,51,3.5,3.5,74,0.00,,,0.28,WeatherDisplay:10.36,2013-04-15 12:05:00,
2013-04-15 07:10:00,57.4,49.2,29.79,NE,43,4.0,0.0,74,0.00,,,0.28,WeatherDisplay:10.36,2013-04-15 12:10:00,
2013-04-15 07:15:00,57.4,49.2,29.79,East,93,0.0,0.0,74,0.00,,,0.28,WeatherDisplay:10.36,2013-04-15 12:15:00,
2013-04-15 07:20:00,57.2,49.0,29.76,NE,51,4.9,4.9,74,0.00,,,0.28,WeatherDisplay:10.36,2013-04-15 12:20:00,
2013-04-15 07:25:00,57.2,48.6,29.76,NE,47,6.3,6.3,73,0.00,,,0.28,WeatherDisplay:10.36,2013-04-15 12:25:00,
2013-04-15 07:30:00,57.0,48.4,29.76,NE,50,5.8,5.8,73,0.00,,,0.28,WeatherDisplay:10.36,2013-04-15 12:30:00,
2013-04-15 07:35:00,56.8,48.3,29.82,NE,47,6.3,6.3,73,0.00,,,0.28,WeatherDisplay:10.36,2013-04-15 12:35:00,
2013-04-15 07:40:00,56.8,48.3,29.82,NE,44,5.4,5.4,73,0.00,,,0.28,WeatherDisplay:10.36,2013-04-15 12:40:00,
2013-04-15 07:46:00,56.8,48.3,29.82,NE,42,6.3,6.3,73,0.00,,,0.28,WeatherDisplay:10.36,2013-04-15 12:46:00,
2013-04-15 07:51:00,56.8,47.9,29.79,NE,54,5.8,5.8,72,0.00,,,0.28,WeatherDisplay:10.36,2013-04-15 12:51:00,
2013-04-15 07:57:00,56.7,47.7,29.79,NE,45,6.9,6.9,72,0.00,,,0.28,WeatherDisplay:10.36,2013-04-15 12:57:00,
2013-04-15 08:03:00,56.7,47.7,29.82,NE,54,6.9,6.9,72,0.00,,,0.28,WeatherDisplay:10.36,2013-04-15 13:03:00,
2013-04-15 08:08:00,56.5,47.6,29.82,NE,50,6.9,6.9,72,0.00,,,0.28,WeatherDisplay:10.36,2013-04-15 13:08:00,
2013-04-15 08:14:00,56.3,47.4,29.82,ENE,66,4.0,4.0,72,0.00,,,0.28,WeatherDisplay:10.36,2013-04-15 13:14:00,
2013-04-15 08:19:00,56.3,47.4,29.82,ENE,62,5.8,5.8,72,0.00,,,0.28,WeatherDisplay:10.36,2013-04-15 13:19:00,
2013-04-15 08:24:00,56.3,47.4,29.82,NE,44,4.9,4.9,72,0.00,,,0.28,WeatherDisplay:10.36,2013-04-15 13:24:00,
2013-04-15 08:29:00,56.1,47.2,29.82,NE,40,6.9,6.9,72,0.00,,,0.28,WeatherDisplay:10.36,2013-04-15 13:29:00,
2013-04-15 08:34:00,56.1,47.2,29.79,NE,42,6.9,6.9,72,0.00,,,0.28,WeatherDisplay:10.36,2013-04-15 13:34:00,
2013-04-15 08:39:00,55.8,46.9,29.79,NE,43,6.3,6.3,72,0.00,,,0.28,WeatherDisplay:10.36,2013-04-15 13:39:00,
2013-04-15 08:44:00,55.8,46.9,29.79,NE,42,4.9,4.9,72,0.00,,,0.28,WeatherDisplay:10.36,2013-04-15 13:44:00,
2013-04-15 08:50:00,55.4,46.5,29.79,NE,49,0.0,3.6,72,0.00,,,0.28,WeatherDisplay:10.36,2013-04-15 13:50:00,
2013-04-15 08:55:00,55.2,46.0,29.79,NE,49,6.7,6.7,71,0.04,RA,RA,0.31,WeatherDisplay:10.36,2013-04-15 13:55:00,
2013-04-15 09:00:00,55.0,46.2,29.79,ENE,76,4.0,5.4,72,0.04,RA,RA,0.31,WeatherDisplay:10.36,2013-04-15 14:00:00,
2013-04-15 09:05:00,54.9,46.0,29.79,NE,41,0.0,3.6,72,0.04,,,0.31,WeatherDisplay:10.36,2013-04-15 14:05:00,
2013-04-15 09:10:00,54.9,46.0,29.79,NE,54,0.0,0.0,72,0.04,,,0.31,WeatherDisplay:10.36,2013-04-15 14:10:00,
2013-04-15 09:17:00,55.2,46.7,29.79,NE,47,2.7,3.6,73,0.04,,,0.31,WeatherDisplay:10.36,2013-04-15 14:17:00,
2013-04-15 09:22:00,55.4,46.9,29.79,NE,52,5.4,5.4,73,0.04,,,0.31,WeatherDisplay:10.36,2013-04-15 14:22:00,
2013-04-15 09:27:00,55.6,47.1,29.79,SSW,201,4.9,4.9,73,0.04,,,0.31,WeatherDisplay:10.36,2013-04-15 14:27:00,
2013-04-15 09:32:00,55.8,47.2,29.76,NE,45,5.8,5.8,73,0.04,,,0.31,WeatherDisplay:10.36,2013-04-15 14:32:00,
2013-04-15 09:38:00,55.8,47.2,29.76,East,96,4.0,4.0,73,0.04,,,0.31,WeatherDisplay:10.36,2013-04-15 14:38:00,
2013-04-15 09:44:00,56.1,47.9,29.76,NE,53,5.8,5.8,74,0.04,,,0.31,WeatherDisplay:10.36,2013-04-15 14:44:00,
2013-04-15 09:50:00,56.1,47.9,29.79,NE,52,5.8,5.8,74,0.04,,,0.31,WeatherDisplay:10.36,2013-04-15 14:50:00,
2013-04-15 09:55:00,56.3,47.8,29.79,NE,52,5.8,5.8,73,0.00,,,0.31,WeatherDisplay:10.36,2013-04-15 14:55:00,
2013-04-15 10:00:00,56.7,48.5,29.79,ENE,60,5.8,5.8,74,0.00,,,0.31,WeatherDisplay:10.36,2013-04-15 15:00:00,
2013-04-15 10:05:00,57.2,49.0,29.82,NE,44,3.6,3.6,74,0.00,,,0.31,WeatherDisplay:10.36,2013-04-15 15:05:00,
2013-04-15 10:11:00,57.6,49.0,29.82,NE,49,4.0,4.0,73,0.00,,,0.31,WeatherDisplay:10.36,2013-04-15 15:11:00,
2013-04-15 10:16:00,57.9,49.3,29.82,NE,54,4.5,4.5,73,0.00,,,0.31,WeatherDisplay:10.36,2013-04-15 15:16:00,
2013-04-15 10:21:00,58.3,49.3,29.82,NE,45,3.1,3.1,72,0.00,,,0.31,WeatherDisplay:10.36,2013-04-15 15:21:00,
2013-04-15 10:27:00,58.5,49.5,29.82,East,84,0.0,0.0,72,0.00,,,0.31,WeatherDisplay:10.36,2013-04-15 15:27:00,
2013-04-15 10:32:00,58.5,49.1,29.82,NE,53,0.0,0.0,71,0.00,,,0.31,WeatherDisplay:10.36,2013-04-15 15:32:00,
2013-04-15 10:37:00,58.3,48.5,29.82,NE,48,4.6,0.0,70,0.00,,,0.31,WeatherDisplay:10.36,2013-04-15 15:37:00,
2013-04-15 10:43:00,58.3,48.5,29.82,ENE,61,3.6,3.6,70,0.00,,,0.31,WeatherDisplay:10.36,2013-04-15 15:43:00,
2013-04-15 10:49:00,58.5,48.3,29.82,NE,47,4.9,4.9,69,0.00,,,0.31,WeatherDisplay:10.36,2013-04-15 15:49:00,
2013-04-15 10:54:00,58.8,48.7,29.82,NE,47,4.6,4.6,69,0.00,,,0.31,WeatherDisplay:10.36,2013-04-15 15:54:00,
2013-04-15 10:59:00,59.0,48.4,29.82,NE,44,0.0,0.0,68,0.00,,,0.31,WeatherDisplay:10.36,2013-04-15 15:59:00,
2013-04-15 11:04:00,59.4,48.4,29.82,NE,42,0.0,0.0,67,0.00,,,0.31,WeatherDisplay:10.36,2013-04-15 16:04:00,
2013-04-15 11:11:00,59.9,48.5,29.82,ENE,59,5.4,5.4,66,0.00,,,0.31,WeatherDisplay:10.36,2013-04-15 16:11:00,
2013-04-15 11:16:00,60.3,47.6,29.82,East,81,0.0,0.0,63,0.00,,,0.31,WeatherDisplay:10.36,2013-04-15 16:16:00,
2013-04-15 11:22:00,60.4,46.9,29.82,NE,49,3.1,3.6,61,0.00,,,0.31,WeatherDisplay:10.36,2013-04-15 16:22:00,
2013-04-15 11:27:00,60.4,46.0,29.82,ENE,75,4.6,4.6,59,0.00,,,0.31,WeatherDisplay:10.36,2013-04-15 16:27:00,
2013-04-15 11:32:00,60.6,45.8,29.82,NE,50,0.0,0.0,58,0.00,,,0.31,WeatherDisplay:10.36,2013-04-15 16:32:00,
2013-04-15 11:37:00,60.6,45.3,29.82,ESE,107,4.6,4.6,57,0.00,,,0.31,WeatherDisplay:10.36,2013-04-15 16:37:00,
2013-04-15 11:42:00,60.6,45.3,29.82,ENE,59,3.6,3.6,57,0.00,,,0.31,WeatherDisplay:10.36,2013-04-15 16:42:00,
2013-04-15 11:47:00,60.6,44.8,29.82,NE,46,4.6,4.6,56,0.00,,,0.31,WeatherDisplay:10.36,2013-04-15 16:47:00,
2013-04-15 11:52:00,60.4,44.2,29.82,NE,50,3.6,0.0,55,0.00,,,0.31,WeatherDisplay:10.36,2013-04-15 16:52:00,
2013-04-15 11:57:00,60.4,43.7,29.82,NE,47,0.0,0.0,54,0.00,,,0.31,WeatherDisplay:10.36,2013-04-15 16:57:00,
2013-04-15 12:02:00,60.6,43.9,29.82,NE,49,3.6,3.6,54,0.00,,,0.31,WeatherDisplay:10.36,2013-04-15 17:02:00,
2013-04-15 12:08:00,61.0,44.2,29.82,NE,46,4.5,4.5,54,0.00,,,0.31,WeatherDisplay:10.36,2013-04-15 17:08:00,
2013-04-15 12:16:00,61.3,44.5,29.82,NE,47,0.0,0.0,54,0.00,,,0.31,WeatherDisplay:10.36,2013-04-15 17:16:00,
2013-04-15 12:21:00,61.5,44.2,29.82,NE,47,5.8,5.8,53,0.00,,,0.31,WeatherDisplay:10.36,2013-04-15 17:21:00,
2013-04-15 12:25:00,61.7,43.9,29.82,ENE,63,4.6,4.6,52,0.00,,,0.31,WeatherDisplay:10.36,2013-04-15 17:25:00,
2013-04-15 12:28:00,61.7,43.9,29.82,ESE,108,3.6,3.6,52,0.00,,,0.31,WeatherDisplay:10.36,2013-04-15 17:28:00,
2013-04-15 12:33:00,61.7,43.9,29.82,East,96,4.0,0.0,52,0.00,,,0.31,WeatherDisplay:10.36,2013-04-15 17:33:00,
2013-04-15 12:38:00,61.7,43.4,29.82,ENE,59,3.6,3.6,51,0.00,,,0.31,WeatherDisplay:10.36,2013-04-15 17:38:00,
2013-04-15 12:43:00,61.5,43.2,29.82,NE,45,0.0,0.0,51,0.00,,,0.31,WeatherDisplay:10.36,2013-04-15 17:43:00,
2013-04-15 12:44:00,61.3,43.0,29.82,NE,45,0.0,0.0,51,0.00,,,0.31,WeatherDisplay:10.36,2013-04-15 17:44:00,
2013-04-15 12:49:00,61.2,42.9,29.82,NE,47,4.0,4.0,51,0.00,,,0.31,WeatherDisplay:10.36,2013-04-15 17:49:00,
2013-04-15 12:54:00,61.0,43.2,29.82,ENE,57,3.6,3.6,52,0.00,,,0.31,WeatherDisplay:10.36,2013-04-15 17:54:00,
2013-04-15 13:00:00,61.0,43.2,29.82,NE,54,0.0,0.0,52,0.00,,,0.31,WeatherDisplay:10.36,2013-04-15 18:00:00,
2013-04-15 13:05:00,61.0,43.2,29.82,ENE,64,0.0,0.0,52,0.00,,,0.31,WeatherDisplay:10.36,2013-04-15 18:05:00,
2013-04-15 13:10:00,61.0,43.2,29.82,ENE,75,4.0,0.0,52,0.00,,,0.31,WeatherDisplay:10.36,2013-04-15 18:10:00,
2013-04-15 13:15:00,61.0,43.2,29.82,East,86,3.6,0.0,52,0.00,,,0.31,WeatherDisplay:10.36,2013-04-15 18:15:00,
2013-04-15 13:20:00,61.2,43.4,29.82,NE,54,3.6,3.6,52,0.00,,,0.31,WeatherDisplay:10.36,2013-04-15 18:20:00,
2013-04-15 13:25:00,61.2,43.4,29.82,NE,51,0.0,0.0,52,0.00,,,0.31,WeatherDisplay:10.36,2013-04-15 18:25:00,
2013-04-15 13:30:00,61.2,43.4,29.82,East,85,0.0,0.0,52,0.00,,,0.31,WeatherDisplay:10.36,2013-04-15 18:30:00,
2013-04-15 13:31:00,61.2,43.4,29.82,East,85,0.0,0.0,52,0.00,,,0.31,WeatherDisplay:10.36,2013-04-15 18:31:00,
2013-04-15 13:32:00,61.2,43.4,29.82,East,85,0.0,0.0,52,0.00,,,0.31,WeatherDisplay:10.36,2013-04-15 18:32:00,
2013-04-15 13:37:00,61.0,42.7,29.82,NE,47,0.0,0.0,51,0.00,,,0.31,WeatherDisplay:10.36,2013-04-15 18:37:00,
2013-04-15 13:38:00,61.0,42.7,29.82,NE,48,0.0,0.0,51,0.00,,,0.31,WeatherDisplay:10.36,2013-04-15 18:38:00,
2013-04-15 13:43:00,60.8,42.0,29.82,NE,47,0.0,0.0,50,0.00,,,0.31,WeatherDisplay:10.36,2013-04-15 18:43:00,
2013-04-15 13:45:00,60.6,41.9,29.82,NE,45,4.9,4.9,50,0.00,,,0.31,WeatherDisplay:10.36,2013-04-15 18:45:00,
2013-04-15 13:50:00,60.4,41.7,29.82,NE,44,4.6,0.0,50,0.00,,,0.31,WeatherDisplay:10.36,2013-04-15 18:50:00,
2013-04-15 13:55:00,60.3,41.5,29.82,NE,44,0.0,0.0,50,0.00,,,0.31,WeatherDisplay:10.36,2013-04-15 18:55:00,
2013-04-15 14:00:00,60.4,41.7,29.82,NE,46,0.0,0.0,50,0.00,,,0.31,WeatherDisplay:10.36,2013-04-15 19:00:00,
2013-04-15 14:05:00,60.6,41.9,29.82,NNE,26,3.6,0.0,50,0.00,,,0.31,WeatherDisplay:10.36,2013-04-15 19:05:00,
2013-04-15 14:10:00,60.3,41.0,29.82,North,351,0.0,0.0,49,0.00,,,0.31,WeatherDisplay:10.36,2013-04-15 19:10:00,
2013-04-15 14:15:00,60.1,40.8,29.82,North,351,5.8,5.8,49,0.00,,,0.31,WeatherDisplay:10.36,2013-04-15 19:15:00,
2013-04-15 14:20:00,59.5,40.9,30.59,North,351,4.9,0.0,50,0.00,,,0.31,WeatherDisplay:10.36,2013-04-15 19:20:00,
2013-04-15 14:25:00,59.2,41.1,30.59,North,351,0.0,0.0,51,0.00,,,0.31,WeatherDisplay:10.36,2013-04-15 19:25:00,
2013-04-15 14:30:00,59.0,41.4,30.59,NE,45,2.3,2.7,52,0.00,,,0.31,WeatherDisplay:10.36,2013-04-15 19:30:00,
2013-04-15 14:35:00,59.0,41.9,29.82,NE,46,0.0,0.0,53,0.00,,,0.31,WeatherDisplay:10.36,2013-04-15 19:35:00,
2013-04-15 14:40:00,59.0,41.9,29.82,North,351,4.0,0.0,53,0.00,,,0.31,WeatherDisplay:10.36,2013-04-15 19:40:00,
2013-04-15 14:45:00,59.0,41.9,29.82,North,351,0.0,0.0,53,0.00,,,0.31,WeatherDisplay:10.36,2013-04-15 19:45:00,
2013-04-15 14:50:00,58.8,41.7,30.65,North,351,4.5,0.0,53,0.00,,,0.31,WeatherDisplay:10.36,2013-04-15 19:50:00,
2013-04-15 14:56:00,58.6,41.5,30.65,North,351,0.0,0.0,53,0.00,,,0.31,WeatherDisplay:10.36,2013-04-15 19:56:00,
2013-04-15 14:58:00,58.6,41.5,30.65,North,351,0.0,0.0,53,0.00,,,0.31,WeatherDisplay:10.36,2013-04-15 19:58:00,
2013-04-15 15:00:00,58.6,41.5,30.65,NNE,29,4.9,0.0,53,0.00,,,0.31,WeatherDisplay:10.36,2013-04-15 20:00:00,
2013-04-15 15:03:00,58.6,41.5,30.62,West,267,4.9,0.0,53,0.00,,,0.31,WeatherDisplay:10.36,2013-04-15 20:03:00,
2013-04-15 15:04:00,58.6,41.5,30.62,West,266,3.6,3.6,53,0.00,,,0.31,WeatherDisplay:10.36,2013-04-15 20:04:00,
2013-04-15 15:07:00,58.5,41.4,30.62,WSW,245,0.0,0.0,53,0.00,,,0.31,WeatherDisplay:10.36,2013-04-15 20:07:00,
2013-04-15 15:08:00,58.5,41.4,30.62,West,267,0.0,0.0,53,0.00,,,0.31,WeatherDisplay:10.36,2013-04-15 20:08:00,
2013-04-15 15:13:00,58.5,41.4,30.62,West,266,0.0,0.0,53,0.00,,,0.31,WeatherDisplay:10.36,2013-04-15 20:13:00,
2013-04-15 15:18:00,58.5,41.4,29.82,SW,232,0.0,0.0,53,0.00,,,0.31,WeatherDisplay:10.36,2013-04-15 20:18:00,
2013-04-15 15:19:00,58.5,41.4,29.82,SW,232,0.0,0.0,53,0.00,,,0.31,WeatherDisplay:10.36,2013-04-15 20:19:00,
2013-04-15 15:24:00,58.6,41.5,29.82,West,265,0.0,0.0,53,0.00,,,0.31,WeatherDisplay:10.36,2013-04-15 20:24:00,
2013-04-15 15:29:00,58.6,42.0,29.82,West,264,0.0,0.0,54,0.00,,,0.31,WeatherDisplay:10.36,2013-04-15 20:29:00,
2013-04-15 15:34:00,58.5,42.3,29.82,West,267,6.3,6.3,55,0.00,,,0.31,WeatherDisplay:10.36,2013-04-15 20:34:00,
2013-04-15 15:39:00,58.3,42.6,29.82,NE,48,5.4,0.0,56,0.00,,,0.31,WeatherDisplay:10.36,2013-04-15 20:39:00,
2013-04-15 15:44:00,57.9,42.8,29.82,ENE,72,0.0,0.0,57,0.00,,,0.31,WeatherDisplay:10.36,2013-04-15 20:44:00,
2013-04-15 15:49:00,57.4,40.4,30.23,North,351,3.5,3.5,53,0.00,,,0.31,WeatherDisplay:10.36,2013-04-15 20:49:00,
2013-04-15 15:54:00,57.2,40.7,30.23,NE,46,4.0,0.0,54,0.00,,,0.31,WeatherDisplay:10.36,2013-04-15 20:54:00,
2013-04-15 15:59:00,57.2,40.7,30.23,NE,44,0.0,0.0,54,0.00,,,0.31,WeatherDisplay:10.36,2013-04-15 20:59:00,
2013-04-15 16:04:00,57.4,41.3,29.82,NE,50,0.0,0.0,55,0.00,,,0.31,WeatherDisplay:10.36,2013-04-15 21:04:00,
2013-04-15 16:09:00,57.4,41.3,29.82,NE,49,5.8,5.8,55,0.00,,,0.31,WeatherDisplay:10.36,2013-04-15 21:09:00,
2013-04-15 16:14:00,57.4,41.8,29.82,ESE,103,0.0,0.0,56,0.00,,,0.31,WeatherDisplay:10.36,2013-04-15 21:14:00,
2013-04-15 16:19:00,57.4,41.8,30.62,North,351,6.3,6.3,56,0.00,,,0.31,WeatherDisplay:10.36,2013-04-15 21:19:00,
2013-04-15 16:24:00,57.4,41.3,30.62,North,351,4.0,0.0,55,0.00,,,0.31,WeatherDisplay:10.36,2013-04-15 21:24:00,
2013-04-15 16:29:00,57.4,40.4,30.62,NE,35,3.6,0.0,53,0.00,,,0.31,WeatherDisplay:10.36,2013-04-15 21:29:00,
2013-04-15 16:34:00,57.4,40.4,29.82,NE,47,3.5,0.0,53,0.00,,,0.31,WeatherDisplay:10.36,2013-04-15 21:34:00,
2013-04-15 16:39:00,57.6,40.1,29.82,NE,44,4.0,4.0,52,0.00,,,0.31,WeatherDisplay:10.36,2013-04-15 21:39:00,
2013-04-15 16:44:00,57.6,40.1,29.82,NNE,25,8.3,8.3,52,0.00,,,0.31,WeatherDisplay:10.36,2013-04-15 21:44:00,
2013-04-15 16:49:00,57.4,39.4,30.59,North,351,6.3,0.0,51,0.00,,,0.31,WeatherDisplay:10.36,2013-04-15 21:49:00,
2013-04-15 16:54:00,57.4,39.4,30.59,North,351,0.0,0.0,51,0.00,,,0.31,WeatherDisplay:10.36,2013-04-15 21:54:00,
2013-04-15 16:59:00,57.6,39.6,30.59,NE,46,0.0,0.0,51,0.00,,,0.31,WeatherDisplay:10.36,2013-04-15 21:59:00,
2013-04-15 17:04:00,57.6,40.1,29.82,NE,45,4.6,0.0,52,0.00,,,0.31,WeatherDisplay:10.36,2013-04-15 22:04:00,
2013-04-15 17:09:00,57.6,40.1,29.82,NE,51,4.0,0.0,52,0.00,,,0.31,WeatherDisplay:10.36,2013-04-15 22:09:00,
2013-04-15 17:14:00,57.6,40.5,29.82,NE,47,0.0,0.0,53,0.00,,,0.31,WeatherDisplay:10.36,2013-04-15 22:14:00,
2013-04-15 17:19:00,57.4,39.9,30.62,NE,43,2.7,0.0,52,0.00,,,0.31,WeatherDisplay:10.36,2013-04-15 22:19:00,
2013-04-15 17:24:00,57.2,39.7,30.62,North,351,4.9,4.9,52,0.00,,,0.31,WeatherDisplay:10.36,2013-04-15 22:24:00,
2013-04-15 17:29:00,57.0,39.1,30.62,WSW,248,5.8,5.8,51,0.00,,,0.31,WeatherDisplay:10.36,2013-04-15 22:29:00,
2013-04-15 17:34:00,56.8,38.9,29.82,North,351,4.6,4.6,51,0.00,,,0.31,WeatherDisplay:10.36,2013-04-15 22:34:00,
2013-04-15 17:39:00,56.7,38.7,29.82,NNE,26,3.6,3.6,51,0.00,,,0.31,WeatherDisplay:10.36,2013-04-15 22:39:00,
2013-04-15 17:44:00,56.7,39.2,29.82,North,351,0.0,0.0,52,0.00,,,0.31,WeatherDisplay:10.36,2013-04-15 22:44:00,
2013-04-15 17:49:00,56.7,39.2,29.82,South,176,4.0,4.0,52,0.00,,,0.31,WeatherDisplay:10.36,2013-04-15 22:49:00,
2013-04-15 17:54:00,56.7,39.2,29.82,East,83,0.0,0.0,52,0.00,,,0.31,WeatherDisplay:10.36,2013-04-15 22:54:00,
2013-04-15 17:59:00,56.7,39.2,29.82,North,351,0.0,0.0,52,0.00,,,0.31,WeatherDisplay:10.36,2013-04-15 22:59:00,
2013-04-15 18:04:00,56.7,39.7,29.82,NE,44,3.6,3.6,53,0.00,,,0.31,WeatherDisplay:10.36,2013-04-15 23:04:00,
2013-04-15 18:09:00,56.7,39.7,29.82,NNE,25,0.0,0.0,53,0.00,,,0.31,WeatherDisplay:10.36,2013-04-15 23:09:00,
2013-04-15 18:14:00,56.7,39.7,29.82,NE,44,3.5,0.0,53,0.00,,,0.31,WeatherDisplay:10.36,2013-04-15 23:14:00,
2013-04-15 18:19:00,56.7,39.7,29.82,ENE,58,0.0,0.0,53,0.00,,,0.31,WeatherDisplay:10.36,2013-04-15 23:19:00,
2013-04-15 18:24:00,56.7,39.7,29.82,NE,49,5.8,5.8,53,0.00,,,0.31,WeatherDisplay:10.36,2013-04-15 23:24:00,
2013-04-15 18:29:00,56.3,39.4,29.82,NE,46,5.4,5.4,53,0.00,,,0.31,WeatherDisplay:10.36,2013-04-15 23:29:00,
2013-04-15 18:34:00,56.3,39.4,29.85,ENE,69,3.5,0.0,53,0.00,,,0.31,WeatherDisplay:10.36,2013-04-15 23:34:00,
2013-04-15 18:39:00,56.1,39.2,29.85,North,351,0.0,0.0,53,0.00,,,0.31,WeatherDisplay:10.36,2013-04-15 23:39:00,
2013-04-15 18:44:00,55.9,39.5,29.85,North,351,5.4,0.0,54,0.00,,,0.31,WeatherDisplay:10.36,2013-04-15 23:44:00,
2013-04-15 18:49:00,55.8,39.4,29.85,ENE,77,4.6,0.0,54,0.00,,,0.31,WeatherDisplay:10.36,2013-04-15 23:49:00,
2013-04-15 18:54:00,55.8,39.4,29.85,NE,44,0.0,0.0,54,0.00,,,0.31,WeatherDisplay:10.36,2013-04-15 23:54:00,
2013-04-15 18:59:00,55.4,39.0,29.85,West,267,3.5,0.0,54,0.00,,,0.31,WeatherDisplay:10.36,2013-04-15 23:59:00,
2013-04-15 19:04:00,55.0,38.7,29.85,NE,48,6.7,6.7,54,0.00,,,0.31,WeatherDisplay:10.36,2013-04-16 00:04:00,
2013-04-15 19:09:00,55.0,38.7,29.85,North,351,5.8,5.8,54,0.00,,,0.31,WeatherDisplay:10.36,2013-04-16 00:09:00,
2013-04-15 19:14:00,54.9,38.5,29.85,NE,48,5.8,5.8,54,0.00,,,0.31,WeatherDisplay:10.36,2013-04-16 00:14:00,
2013-04-15 19:19:00,54.9,38.5,29.85,NE,49,4.0,0.0,54,0.00,,,0.31,WeatherDisplay:10.36,2013-04-16 00:19:00,
2013-04-15 19:24:00,54.7,38.8,29.85,NE,47,5.8,5.8,55,0.00,,,0.31,WeatherDisplay:10.36,2013-04-16 00:24:00,
2013-04-15 19:29:00,54.7,38.8,29.85,NE,47,4.6,4.6,55,0.00,,,0.31,WeatherDisplay:10.36,2013-04-16 00:29:00,
2013-04-15 19:34:00,54.5,39.1,29.88,North,351,5.8,5.8,56,0.00,,,0.31,WeatherDisplay:10.36,2013-04-16 00:34:00,
2013-04-15 19:39:00,54.3,39.4,29.88,North,351,6.9,6.9,57,0.00,,,0.31,WeatherDisplay:10.36,2013-04-16 00:39:00,
2013-04-15 19:44:00,54.0,39.1,29.88,NE,48,8.3,8.3,57,0.00,,,0.31,WeatherDisplay:10.36,2013-04-16 00:44:00,
2013-04-15 19:49:00,54.0,39.1,29.88,SW,229,6.3,0.0,57,0.00,,,0.31,WeatherDisplay:10.36,2013-04-16 00:49:00,
2013-04-15 19:54:00,53.6,38.7,29.88,NE,54,4.0,4.0,57,0.00,,,0.31,WeatherDisplay:10.36,2013-04-16 00:54:00,
2013-04-15 19:59:00,53.4,38.6,29.88,NNE,26,4.0,0.0,57,0.00,,,0.31,WeatherDisplay:10.36,2013-04-16 00:59:00,
2013-04-15 20:04:00,53.1,37.3,29.88,NNE,26,6.9,6.9,55,0.00,,,0.31,WeatherDisplay:10.36,2013-04-16 01:04:00,
2013-04-15 20:09:00,52.9,36.7,29.88,West,267,2.3,0.0,54,0.00,,,0.31,WeatherDisplay:10.36,2013-04-16 01:09:00,
2013-04-15 20:14:00,52.9,37.1,29.88,North,351,5.4,0.0,55,0.00,,,0.31,WeatherDisplay:10.36,2013-04-16 01:14:00,
2013-04-15 20:19:00,52.9,36.7,29.91,North,351,4.9,0.0,54,0.00,,,0.31,WeatherDisplay:10.36,2013-04-16 01:19:00,
2013-04-15 20:24:00,52.9,36.7,29.91,North,351,0.0,0.0,54,0.00,,,0.31,WeatherDisplay:10.36,2013-04-16 01:24:00,
2013-04-15 20:29:00,52.9,36.7,29.91,North,351,0.0,0.0,54,0.00,,,0.31,WeatherDisplay:10.36,2013-04-16 01:29:00,
2013-04-15 20:34:00,53.1,37.3,30.70,North,351,0.0,0.0,55,0.00,,,0.31,WeatherDisplay:10.36,2013-04-16 01:34:00,
2013-04-15 20:39:00,53.1,37.3,30.70,NE,46,2.7,0.0,55,0.00,,,0.31,WeatherDisplay:10.36,2013-04-16 01:39:00,
2013-04-15 20:44:00,53.1,37.3,30.70,NE,44,0.0,0.0,55,0.00,,,0.31,WeatherDisplay:10.36,2013-04-16 01:44:00,
2013-04-15 20:49:00,53.1,37.8,30.70,NE,38,9.2,9.2,56,0.00,,,0.31,WeatherDisplay:10.36,2013-04-16 01:49:00,
2013-04-15 20:54:00,52.7,38.3,30.70,NE,45,6.9,6.9,58,0.00,,,0.31,WeatherDisplay:10.36,2013-04-16 01:54:00,
2013-04-15 20:59:00,52.7,38.8,30.70,North,351,3.5,0.0,59,0.00,,,0.31,WeatherDisplay:10.36,2013-04-16 01:59:00,
2013-04-15 21:04:00,52.5,38.6,29.91,NE,46,5.8,5.8,59,0.00,,,0.31,WeatherDisplay:10.36,2013-04-16 02:04:00,
2013-04-15 21:09:00,52.3,39.3,29.91,NE,45,9.2,9.2,61,0.00,,,0.31,WeatherDisplay:10.36,2013-04-16 02:09:00,
2013-04-15 21:14:00,52.2,39.1,29.91,NE,44,4.0,0.0,61,0.00,,,0.31,WeatherDisplay:10.36,2013-04-16 02:14:00,
2013-04-15 21:19:00,52.0,38.5,30.79,NNE,28,4.6,4.6,60,0.00,,,0.31,WeatherDisplay:10.36,2013-04-16 02:19:00,
2013-04-15 21:24:00,51.8,37.0,30.79,NE,50,5.8,5.8,57,0.00,,,0.31,WeatherDisplay:10.36,2013-04-16 02:24:00,
2013-04-15 21:29:00,51.6,36.0,30.79,NNE,27,6.9,6.9,55,0.00,,,0.31,WeatherDisplay:10.36,2013-04-16 02:29:00,
2013-04-15 21:34:00,51.4,34.9,29.91,NE,48,7.4,7.4,53,0.00,,,0.31,WeatherDisplay:10.36,2013-04-16 02:34:00,
2013-04-15 21:39:00,51.1,34.5,29.91,ESE,115,9.6,9.6,53,0.00,,,0.31,WeatherDisplay:10.36,2013-04-16 02:39:00,
2013-04-15 21:44:00,50.9,34.4,29.91,North,351,3.6,3.6,53,0.00,,,0.31,WeatherDisplay:10.36,2013-04-16 02:44:00,
2013-04-15 21:49:00,50.7,34.2,29.91,ENE,58,6.9,6.9,53,0.00,,,0.31,WeatherDisplay:10.36,2013-04-16 02:49:00,
2013-04-15 21:54:00,50.7,34.2,29.91,NE,48,4.0,4.0,53,0.00,,,0.31,WeatherDisplay:10.36,2013-04-16 02:54:00,
2013-04-15 21:59:00,50.5,33.6,29.91,NE,45,6.9,6.9,52,0.00,,,0.31,WeatherDisplay:10.36,2013-04-16 02:59:00,
2013-04-15 22:04:00,50.4,32.9,29.91,East,87,8.1,0.0,51,0.00,,,0.31,WeatherDisplay:10.36,2013-04-16 03:04:00,
2013-04-15 22:09:00,50.2,32.2,29.91,NE,47,10.5,10.5,50,0.00,,,0.31,WeatherDisplay:10.36,2013-04-16 03:09:00,
2013-04-15 22:14:00,50.0,31.6,29.91,North,351,3.6,0.0,49,0.00,,,0.31,WeatherDisplay:10.36,2013-04-16 03:14:00,
2013-04-15 22:19:00,50.0,31.6,29.91,North,351,4.6,0.0,49,0.00,,,0.31,WeatherDisplay:10.36,2013-04-16 03:19:00,
2013-04-15 22:24:00,49.6,31.2,29.91,North,351,8.1,8.1,49,0.00,,,0.31,WeatherDisplay:10.36,2013-04-16 03:24:00,
2013-04-15 22:29:00,49.5,31.1,29.91,NNE,26,0.0,0.0,49,0.00,,,0.31,WeatherDisplay:10.36,2013-04-16 03:29:00,
2013-04-15 22:34:00,49.5,31.6,29.91,NNE,25,6.3,0.0,50,0.00,,,0.31,WeatherDisplay:10.36,2013-04-16 03:34:00,
2013-04-15 22:39:00,49.5,31.6,29.91,NE,47,5.8,5.8,50,0.00,,,0.31,WeatherDisplay:10.36,2013-04-16 03:39:00,
2013-04-15 22:44:00,49.3,31.4,29.91,NE,48,3.5,0.0,50,0.00,,,0.31,WeatherDisplay:10.36,2013-04-16 03:44:00,
2013-04-15 22:49:00,49.1,31.2,29.91,North,351,4.6,4.6,50,0.00,,,0.31,WeatherDisplay:10.36,2013-04-16 03:49:00,
2013-04-15 22:54:00,48.9,31.6,29.91,NE,51,6.9,6.9,51,0.00,,,0.31,WeatherDisplay:10.36,2013-04-16 03:54:00,
2013-04-15 22:59:00,48.7,31.9,29.91,North,351,0.0,0.0,52,0.00,,,0.31,WeatherDisplay:10.36,2013-04-16 03:59:00,
2013-04-15 23:00:00,48.7,31.9,29.91,WSW,258,3.6,0.0,52,0.00,,,0.31,WeatherDisplay:10.36,2013-04-16 04:00:00,
2013-04-15 23:02:00,48.7,32.4,29.91,NNE,29,0.0,0.0,53,0.00,,,0.00,WeatherDisplay:10.36,2013-04-16 04:02:00,
2013-04-15 23:04:00,48.4,32.5,30.70,NE,52,4.6,0.0,54,0.00,,,0.00,WeatherDisplay:10.36,2013-04-16 04:04:00,
2013-04-15 23:09:00,48.2,32.8,30.70,NE,48,4.9,4.9,55,0.04,,,0.08,WeatherDisplay:10.36,2013-04-16 04:09:00,
2013-04-15 23:14:00,48.0,33.1,30.70,ENE,57,5.8,5.8,56,0.12,RA,RA,0.16,WeatherDisplay:10.36,2013-04-16 04:14:00,
2013-04-15 23:19:00,47.1,33.9,29.94,North,351,3.6,3.6,60,0.12,RA,RA,0.43,WeatherDisplay:10.36,2013-04-16 04:19:00,
2013-04-15 23:23:00,46.6,34.2,29.94,North,351,3.6,3.6,62,0.16,RA,RA,0.47,WeatherDisplay:10.36,2013-04-16 04:23:00,
2013-04-15 23:28:00,45.9,34.4,29.94,North,351,5.4,0.0,64,0.24,RA,RA,0.55,WeatherDisplay:10.36,2013-04-16 04:28:00,
2013-04-15 23:33:00,45.5,35.2,29.94,NE,54,4.9,4.9,67,0.28,RA,RA,0.59,WeatherDisplay:10.36,2013-04-16 04:33:00,
2013-04-15 23:38:00,45.1,36.3,29.94,NNE,26,7.4,7.4,71,0.35,RA,RA,0.67,WeatherDisplay:10.36,2013-04-16 04:38:00,
2013-04-15 23:43:00,44.6,36.5,29.94,NE,43,5.8,5.8,73,0.35,RA,RA,0.67,WeatherDisplay:10.36,2013-04-16 04:43:00,
2013-04-15 23:48:00,44.6,37.2,29.94,NNE,26,4.6,0.0,75,0.35,,,0.67,WeatherDisplay:10.36,2013-04-16 04:48:00,
2013-04-15 23:53:00,44.6,37.2,29.94,NNE,26,0.0,0.0,75,0.35,,,0.67,WeatherDisplay:10.36,2013-04-16 04:53:00,
2013-04-15 23:58:00,44.8,37.7,29.94,ENE,78,3.5,3.5,76,0.35,,,0.67,WeatherDisplay:10.36,2013-04-16 04:58:00,